sensor_id;sensor_type;location;lat;lon;timestamp;pressure;altitude;pressure_sealevel;temperature;humidity
27840;BME280;15207;42.182;24.308;2024-02-23T00:00:30;99157.75;;;4.94;93.75
27840;BME280;15207;42.182;24.308;2024-02-23T00:02:55;99154.91;;;4.97;93.47
27840;BME280;15207;42.182;24.308;2024-02-23T00:05:23;99155.09;;;4.94;92.98
27840;BME280;15207;42.182;24.308;2024-02-23T00:07:48;99150.16;;;4.87;91.30
27840;BME280;15207;42.182;24.308;2024-02-23T00:10:14;99149.75;;;4.63;92.51
27840;BME280;15207;42.182;24.308;2024-02-23T00:12:39;99155.13;;;4.78;92.09
27840;BME280;15207;42.182;24.308;2024-02-23T00:15:05;99155.56;;;4.70;92.51
27840;BME280;15207;42.182;24.308;2024-02-23T00:17:30;99156.94;;;4.77;92.75
27840;BME280;15207;42.182;24.308;2024-02-23T00:19:56;99154.53;;;4.72;92.95
27840;BME280;15207;42.182;24.308;2024-02-23T00:22:21;99154.44;;;4.74;92.45
27840;BME280;15207;42.182;24.308;2024-02-23T00:24:46;99156.75;;;4.64;92.98
27840;BME280;15207;42.182;24.308;2024-02-23T00:27:12;99143.69;;;4.61;93.54
27840;BME280;15207;42.182;24.308;2024-02-23T00:29:37;99139.31;;;4.44;93.12
27840;BME280;15207;42.182;24.308;2024-02-23T00:32:04;99140.94;;;4.46;92.63
27840;BME280;15207;42.182;24.308;2024-02-23T00:34:29;99139.25;;;4.45;92.81
27840;BME280;15207;42.182;24.308;2024-02-23T00:36:57;99135.81;;;4.11;93.47
27840;BME280;15207;42.182;24.308;2024-02-23T00:39:22;99126.66;;;4.01;94.05
27840;BME280;15207;42.182;24.308;2024-02-23T00:41:48;99137.00;;;3.89;94.40
27840;BME280;15207;42.182;24.308;2024-02-23T00:44:14;99134.25;;;3.91;96.92
27840;BME280;15207;42.182;24.308;2024-02-23T00:46:39;99130.84;;;4.05;96.28
27840;BME280;15207;42.182;24.308;2024-02-23T00:49:05;99144.94;;;4.05;95.24
27840;BME280;15207;42.182;24.308;2024-02-23T00:51:31;99119.03;;;3.78;94.69
27840;BME280;15207;42.182;24.308;2024-02-23T00:53:56;99120.59;;;3.65;96.72
27840;BME280;15207;42.182;24.308;2024-02-23T00:56:22;99120.84;;;3.94;96.57
27840;BME280;15207;42.182;24.308;2024-02-23T00:58:48;99118.44;;;4.05;95.97
27840;BME280;15207;42.182;24.308;2024-02-23T01:01:13;99126.16;;;4.10;95.95
27840;BME280;15207;42.182;24.308;2024-02-23T01:03:38;99124.44;;;3.93;96.84
27840;BME280;15207;42.182;24.308;2024-02-23T01:06:04;99105.88;;;3.93;96.81
27840;BME280;15207;42.182;24.308;2024-02-23T01:08:29;99102.97;;;3.97;96.66
27840;BME280;15207;42.182;24.308;2024-02-23T01:10:54;99113.75;;;3.94;96.19
27840;BME280;15207;42.182;24.308;2024-02-23T01:13:20;99122.78;;;4.06;95.65
27840;BME280;15207;42.182;24.308;2024-02-23T01:15:45;99114.09;;;4.20;95.15
27840;BME280;15207;42.182;24.308;2024-02-23T01:18:10;99115.06;;;4.19;93.35
27840;BME280;15207;42.182;24.308;2024-02-23T01:20:36;99105.03;;;4.08;95.46
27840;BME280;15207;42.182;24.308;2024-02-23T01:23:01;99099.22;;;4.02;95.38
27840;BME280;15207;42.182;24.308;2024-02-23T01:25:27;99099.88;;;4.05;92.87
27840;BME280;15207;42.182;24.308;2024-02-23T01:27:52;99088.78;;;3.99;92.37
27840;BME280;15207;42.182;24.308;2024-02-23T01:30:18;99096.22;;;4.08;92.98
27840;BME280;15207;42.182;24.308;2024-02-23T01:32:46;99098.34;;;3.51;94.43
27840;BME280;15207;42.182;24.308;2024-02-23T01:35:12;99094.63;;;3.04;96.80
27840;BME280;15207;42.182;24.308;2024-02-23T01:37:37;99095.47;;;3.04;99.91
27840;BME280;15207;42.182;24.308;2024-02-23T01:40:03;99086.28;;;3.12;98.53
27840;BME280;15207;42.182;24.308;2024-02-23T01:42:29;99091.66;;;2.93;99.93
27840;BME280;15207;42.182;24.308;2024-02-23T01:44:54;99082.09;;;3.08;99.77
27840;BME280;15207;42.182;24.308;2024-02-23T01:47:27;99081.88;;;2.95;100.00
27840;BME280;15207;42.182;24.308;2024-02-23T01:49:54;99082.78;;;2.94;100.00
27840;BME280;15207;42.182;24.308;2024-02-23T01:52:21;99090.97;;;2.89;100.00
27840;BME280;15207;42.182;24.308;2024-02-23T01:54:46;99099.31;;;2.99;100.00
27840;BME280;15207;42.182;24.308;2024-02-23T01:57:12;99095.25;;;3.09;100.00
27840;BME280;15207;42.182;24.308;2024-02-23T01:59:39;99098.34;;;3.00;100.00
27840;BME280;15207;42.182;24.308;2024-02-23T02:02:05;99094.19;;;3.29;98.28
27840;BME280;15207;42.182;24.308;2024-02-23T02:04:30;99099.88;;;3.39;96.86
27840;BME280;15207;42.182;24.308;2024-02-23T02:06:58;99093.03;;;3.17;96.75
27840;BME280;15207;42.182;24.308;2024-02-23T02:09:25;99091.59;;;3.12;97.68
27840;BME280;15207;42.182;24.308;2024-02-23T02:11:50;99090.97;;;3.07;98.82
27840;BME280;15207;42.182;24.308;2024-02-23T02:14:16;99093.28;;;3.13;96.59
27840;BME280;15207;42.182;24.308;2024-02-23T02:16:43;99103.81;;;2.79;97.57
27840;BME280;15207;42.182;24.308;2024-02-23T02:19:11;99087.22;;;2.93;98.62
27840;BME280;15207;42.182;24.308;2024-02-23T02:21:37;99086.44;;;2.73;100.00
27840;BME280;15207;42.182;24.308;2024-02-23T02:24:04;99095.94;;;2.77;100.00
27840;BME280;15207;42.182;24.308;2024-02-23T02:26:30;99096.84;;;2.59;98.82
27840;BME280;15207;42.182;24.308;2024-02-23T02:28:56;99092.69;;;2.35;99.67
27840;BME280;15207;42.182;24.308;2024-02-23T02:31:21;99097.19;;;2.33;100.00
27840;BME280;15207;42.182;24.308;2024-02-23T02:33:47;99096.16;;;2.36;100.00
27840;BME280;15207;42.182;24.308;2024-02-23T02:36:12;99086.09;;;2.44;100.00
27840;BME280;15207;42.182;24.308;2024-02-23T02:38:38;99079.03;;;2.45;100.00
27840;BME280;15207;42.182;24.308;2024-02-23T02:41:03;99084.78;;;2.53;100.00
27840;BME280;15207;42.182;24.308;2024-02-23T02:43:30;99083.50;;;2.62;100.00
27840;BME280;15207;42.182;24.308;2024-02-23T02:45:56;99075.94;;;2.72;100.00
27840;BME280;15207;42.182;24.308;2024-02-23T02:48:22;99083.56;;;2.78;99.25
27840;BME280;15207;42.182;24.308;2024-02-23T02:50:47;99078.09;;;2.63;97.83
27840;BME280;15207;42.182;24.308;2024-02-23T02:53:15;99087.59;;;2.50;98.25
27840;BME280;15207;42.182;24.308;2024-02-23T02:55:42;99088.66;;;2.46;99.53
27840;BME280;15207;42.182;24.308;2024-02-23T02:58:07;99086.09;;;2.44;99.84
27840;BME280;15207;42.182;24.308;2024-02-23T03:00:33;99088.53;;;2.67;99.00
27840;BME280;15207;42.182;24.308;2024-02-23T03:02:58;99101.88;;;2.46;99.80
27840;BME280;15207;42.182;24.308;2024-02-23T03:05:24;99090.38;;;2.47;100.00
27840;BME280;15207;42.182;24.308;2024-02-23T03:07:49;99091.88;;;2.53;98.66
27840;BME280;15207;42.182;24.308;2024-02-23T03:10:14;99076.97;;;2.32;99.01
27840;BME280;15207;42.182;24.308;2024-02-23T03:12:40;99097.22;;;2.51;99.45
27840;BME280;15207;42.182;24.308;2024-02-23T03:15:06;99094.88;;;2.45;98.21
27840;BME280;15207;42.182;24.308;2024-02-23T03:17:32;99096.16;;;2.55;98.95
27840;BME280;15207;42.182;24.308;2024-02-23T03:19:58;99094.94;;;2.80;97.91
27840;BME280;15207;42.182;24.308;2024-02-23T03:22:23;99100.84;;;2.85;98.11
27840;BME280;15207;42.182;24.308;2024-02-23T03:24:49;99115.22;;;2.80;98.04
27840;BME280;15207;42.182;24.308;2024-02-23T03:27:14;99112.13;;;2.89;97.98
27840;BME280;15207;42.182;24.308;2024-02-23T03:29:39;99107.06;;;2.84;97.40
27840;BME280;15207;42.182;24.308;2024-02-23T03:32:05;99116.53;;;2.71;98.31
27840;BME280;15207;42.182;24.308;2024-02-23T03:34:31;99123.63;;;2.70;98.89
27840;BME280;15207;42.182;24.308;2024-02-23T03:36:56;99121.56;;;2.95;97.21
27840;BME280;15207;42.182;24.308;2024-02-23T03:39:23;99125.28;;;2.90;95.17
27840;BME280;15207;42.182;24.308;2024-02-23T03:41:49;99118.88;;;2.77;95.96
27840;BME280;15207;42.182;24.308;2024-02-23T03:44:14;99109.09;;;2.79;95.57
27840;BME280;15207;42.182;24.308;2024-02-23T03:46:39;99115.69;;;2.70;96.95
27840;BME280;15207;42.182;24.308;2024-02-23T03:49:05;99115.41;;;2.94;96.00
27840;BME280;15207;42.182;24.308;2024-02-23T03:51:30;99114.00;;;2.87;96.08
27840;BME280;15207;42.182;24.308;2024-02-23T03:53:58;99113.16;;;3.04;95.41
27840;BME280;15207;42.182;24.308;2024-02-23T03:56:23;99108.09;;;2.82;96.85
27840;BME280;15207;42.182;24.308;2024-02-23T03:58:48;99104.81;;;2.76;96.61
27840;BME280;15207;42.182;24.308;2024-02-23T04:01:14;99102.63;;;2.67;96.02
27840;BME280;15207;42.182;24.308;2024-02-23T04:03:39;99094.44;;;2.54;96.55
27840;BME280;15207;42.182;24.308;2024-02-23T04:06:05;99106.94;;;2.50;95.62
27840;BME280;15207;42.182;24.308;2024-02-23T04:08:31;99097.91;;;2.37;96.52
27840;BME280;15207;42.182;24.308;2024-02-23T04:10:57;99094.97;;;2.43;96.88
27840;BME280;15207;42.182;24.308;2024-02-23T04:13:22;99098.91;;;2.34;97.99
27840;BME280;15207;42.182;24.308;2024-02-23T04:15:48;99106.84;;;2.34;98.88
27840;BME280;15207;42.182;24.308;2024-02-23T04:18:13;99107.25;;;2.44;99.04
27840;BME280;15207;42.182;24.308;2024-02-23T04:20:39;99109.94;;;2.43;99.29
27840;BME280;15207;42.182;24.308;2024-02-23T04:23:04;99098.22;;;2.48;97.84
27840;BME280;15207;42.182;24.308;2024-02-23T04:25:29;99102.47;;;2.70;95.39
27840;BME280;15207;42.182;24.308;2024-02-23T04:27:55;99106.91;;;2.70;94.91
27840;BME280;15207;42.182;24.308;2024-02-23T04:30:20;99111.75;;;2.42;95.32
27840;BME280;15207;42.182;24.308;2024-02-23T04:32:46;99119.22;;;2.15;96.92
27840;BME280;15207;42.182;24.308;2024-02-23T04:35:11;99111.44;;;1.92;99.53
27840;BME280;15207;42.182;24.308;2024-02-23T04:37:36;99114.09;;;1.92;100.00
27840;BME280;15207;42.182;24.308;2024-02-23T04:40:02;99119.69;;;1.65;100.00
27840;BME280;15207;42.182;24.308;2024-02-23T04:42:29;99110.41;;;1.56;100.00
27840;BME280;15207;42.182;24.308;2024-02-23T04:44:54;99108.63;;;1.76;100.00
27840;BME280;15207;42.182;24.308;2024-02-23T04:47:20;99104.22;;;1.77;100.00
27840;BME280;15207;42.182;24.308;2024-02-23T04:49:45;99115.50;;;2.00;100.00
27840;BME280;15207;42.182;24.308;2024-02-23T04:52:11;99109.81;;;1.90;100.00
27840;BME280;15207;42.182;24.308;2024-02-23T04:54:36;99116.69;;;1.73;100.00
27840;BME280;15207;42.182;24.308;2024-02-23T04:57:01;99117.84;;;1.67;100.00
27840;BME280;15207;42.182;24.308;2024-02-23T04:59:27;99119.44;;;1.91;100.00
27840;BME280;15207;42.182;24.308;2024-02-23T05:01:53;99130.41;;;1.62;100.00
27840;BME280;15207;42.182;24.308;2024-02-23T05:04:18;99125.53;;;1.72;100.00
27840;BME280;15207;42.182;24.308;2024-02-23T05:06:44;99131.41;;;1.79;100.00
27840;BME280;15207;42.182;24.308;2024-02-23T05:09:09;99128.63;;;2.01;100.00
27840;BME280;15207;42.182;24.308;2024-02-23T05:11:35;99114.72;;;1.97;100.00
27840;BME280;15207;42.182;24.308;2024-02-23T05:14:00;99116.22;;;1.84;100.00
27840;BME280;15207;42.182;24.308;2024-02-23T05:16:26;99130.00;;;1.71;100.00
27840;BME280;15207;42.182;24.308;2024-02-23T05:18:51;99130.47;;;1.61;100.00
27840;BME280;15207;42.182;24.308;2024-02-23T05:21:17;99131.19;;;1.64;100.00
27840;BME280;15207;42.182;24.308;2024-02-23T05:23:42;99134.34;;;1.92;100.00
27840;BME280;15207;42.182;24.308;2024-02-23T05:26:08;99139.69;;;1.90;100.00
27840;BME280;15207;42.182;24.308;2024-02-23T05:28:33;99131.84;;;2.08;100.00
27840;BME280;15207;42.182;24.308;2024-02-23T05:30:59;99135.72;;;2.20;99.26
27840;BME280;15207;42.182;24.308;2024-02-23T05:33:24;99138.00;;;2.08;100.00
27840;BME280;15207;42.182;24.308;2024-02-23T05:35:50;99133.38;;;2.14;100.00
27840;BME280;15207;42.182;24.308;2024-02-23T05:38:16;99157.84;;;2.17;100.00
27840;BME280;15207;42.182;24.308;2024-02-23T05:40:42;99159.28;;;2.24;100.00
27840;BME280;15207;42.182;24.308;2024-02-23T05:43:07;99159.59;;;2.55;99.02
27840;BME280;15207;42.182;24.308;2024-02-23T05:45:33;99160.13;;;2.44;98.88
27840;BME280;15207;42.182;24.308;2024-02-23T05:47:58;99157.09;;;2.52;99.16
27840;BME280;15207;42.182;24.308;2024-02-23T05:50:24;99162.75;;;2.44;99.37
27840;BME280;15207;42.182;24.308;2024-02-23T05:52:49;99171.50;;;2.27;100.00
27840;BME280;15207;42.182;24.308;2024-02-23T05:55:15;99165.19;;;2.30;100.00
27840;BME280;15207;42.182;24.308;2024-02-23T05:57:40;99169.94;;;2.60;100.00
27840;BME280;15207;42.182;24.308;2024-02-23T06:00:06;99164.72;;;2.77;99.78
27840;BME280;15207;42.182;24.308;2024-02-23T06:02:35;99166.41;;;2.78;99.43
27840;BME280;15207;42.182;24.308;2024-02-23T06:05:00;99167.09;;;3.01;97.56
27840;BME280;15207;42.182;24.308;2024-02-23T06:07:25;99170.59;;;3.20;97.27
27840;BME280;15207;42.182;24.308;2024-02-23T06:09:54;99159.28;;;3.34;96.03
27840;BME280;15207;42.182;24.308;2024-02-23T06:12:20;99169.00;;;3.33;96.98
27840;BME280;15207;42.182;24.308;2024-02-23T06:14:45;99165.28;;;3.55;96.70
27840;BME280;15207;42.182;24.308;2024-02-23T06:17:11;99168.91;;;3.70;95.64
27840;BME280;15207;42.182;24.308;2024-02-23T06:19:36;99173.34;;;3.69;95.23
27840;BME280;15207;42.182;24.308;2024-02-23T06:22:04;99174.41;;;3.83;95.48
27840;BME280;15207;42.182;24.308;2024-02-23T06:24:30;99172.13;;;4.09;94.19
27840;BME280;15207;42.182;24.308;2024-02-23T06:26:55;99178.91;;;4.15;93.35
27840;BME280;15207;42.182;24.308;2024-02-23T06:29:23;99174.81;;;4.41;92.88
27840;BME280;15207;42.182;24.308;2024-02-23T06:31:48;99180.09;;;4.73;91.12
27840;BME280;15207;42.182;24.308;2024-02-23T06:34:15;99179.50;;;4.84;92.33
27840;BME280;15207;42.182;24.308;2024-02-23T06:36:41;99186.13;;;5.08;91.67
27840;BME280;15207;42.182;24.308;2024-02-23T06:39:06;99179.88;;;5.09;91.22
27840;BME280;15207;42.182;24.308;2024-02-23T06:41:32;99171.41;;;5.33;89.88
27840;BME280;15207;42.182;24.308;2024-02-23T06:43:57;99171.16;;;5.52;89.33
27840;BME280;15207;42.182;24.308;2024-02-23T06:46:23;99169.78;;;5.61;89.31
27840;BME280;15207;42.182;24.308;2024-02-23T06:48:48;99161.34;;;6.12;86.31
27840;BME280;15207;42.182;24.308;2024-02-23T06:51:13;99162.38;;;6.09;85.82
27840;BME280;15207;42.182;24.308;2024-02-23T06:53:40;99164.84;;;6.42;84.18
27840;BME280;15207;42.182;24.308;2024-02-23T06:56:06;99171.53;;;6.05;84.83
27840;BME280;15207;42.182;24.308;2024-02-23T06:58:31;99172.19;;;6.24;83.64
27840;BME280;15207;42.182;24.308;2024-02-23T07:00:57;99175.63;;;6.53;82.59
27840;BME280;15207;42.182;24.308;2024-02-23T07:03:22;99175.91;;;6.63;82.43
27840;BME280;15207;42.182;24.308;2024-02-23T07:05:48;99169.91;;;6.87;81.34
27840;BME280;15207;42.182;24.308;2024-02-23T07:08:15;99165.03;;;6.94;80.58
27840;BME280;15207;42.182;24.308;2024-02-23T07:10:40;99169.34;;;6.82;81.21
27840;BME280;15207;42.182;24.308;2024-02-23T07:13:05;99169.56;;;7.06;80.01
27840;BME280;15207;42.182;24.308;2024-02-23T07:15:32;99172.91;;;7.23;80.55
27840;BME280;15207;42.182;24.308;2024-02-23T07:17:58;99173.25;;;7.44;79.77
27840;BME280;15207;42.182;24.308;2024-02-23T07:20:24;99168.69;;;7.59;78.80
27840;BME280;15207;42.182;24.308;2024-02-23T07:22:49;99165.91;;;7.48;77.38
27840;BME280;15207;42.182;24.308;2024-02-23T07:25:18;99173.03;;;7.60;77.59
27840;BME280;15207;42.182;24.308;2024-02-23T07:27:45;99170.16;;;7.89;76.71
27840;BME280;15207;42.182;24.308;2024-02-23T07:30:12;99169.44;;;7.87;76.12
27840;BME280;15207;42.182;24.308;2024-02-23T07:32:37;99169.50;;;8.12;75.62
27840;BME280;15207;42.182;24.308;2024-02-23T07:35:03;99163.88;;;8.16;74.60
27840;BME280;15207;42.182;24.308;2024-02-23T07:37:29;99159.75;;;8.37;74.30
27840;BME280;15207;42.182;24.308;2024-02-23T07:39:55;99162.63;;;8.46;74.07
27840;BME280;15207;42.182;24.308;2024-02-23T07:42:21;99161.75;;;8.59;73.69
27840;BME280;15207;42.182;24.308;2024-02-23T07:44:46;99162.09;;;8.54;74.55
27840;BME280;15207;42.182;24.308;2024-02-23T07:47:12;99156.47;;;8.70;74.51
27840;BME280;15207;42.182;24.308;2024-02-23T07:49:37;99150.75;;;8.88;73.74
27840;BME280;15207;42.182;24.308;2024-02-23T07:52:03;99149.19;;;8.97;74.06
27840;BME280;15207;42.182;24.308;2024-02-23T07:54:29;99158.03;;;9.22;72.24
27840;BME280;15207;42.182;24.308;2024-02-23T07:56:54;99147.63;;;9.30;71.32
27840;BME280;15207;42.182;24.308;2024-02-23T07:59:19;99148.59;;;9.29;71.15
27840;BME280;15207;42.182;24.308;2024-02-23T08:01:45;99153.69;;;9.32;70.90
27840;BME280;15207;42.182;24.308;2024-02-23T08:04:10;99157.94;;;9.35;70.88
27840;BME280;15207;42.182;24.308;2024-02-23T08:06:36;99157.91;;;9.71;71.00
27840;BME280;15207;42.182;24.308;2024-02-23T08:09:01;99146.25;;;9.95;68.10
27840;BME280;15207;42.182;24.308;2024-02-23T08:11:27;99142.47;;;9.74;69.82
27840;BME280;15207;42.182;24.308;2024-02-23T08:13:53;99135.03;;;10.35;66.75
27840;BME280;15207;42.182;24.308;2024-02-23T08:16:18;99132.28;;;10.02;66.37
27840;BME280;15207;42.182;24.308;2024-02-23T08:18:44;99134.03;;;10.59;64.49
27840;BME280;15207;42.182;24.308;2024-02-23T08:21:09;99133.25;;;10.80;63.03
27840;BME280;15207;42.182;24.308;2024-02-23T08:23:36;99130.88;;;11.19;61.18
27840;BME280;15207;42.182;24.308;2024-02-23T08:26:01;99138.41;;;11.26;60.79
27840;BME280;15207;42.182;24.308;2024-02-23T08:28:26;99119.25;;;11.51;59.76
27840;BME280;15207;42.182;24.308;2024-02-23T08:30:52;99120.03;;;11.42;59.11
27840;BME280;15207;42.182;24.308;2024-02-23T08:33:18;99117.81;;;11.26;59.49
27840;BME280;15207;42.182;24.308;2024-02-23T08:35:43;99119.03;;;11.22;59.79
27840;BME280;15207;42.182;24.308;2024-02-23T08:38:09;99122.59;;;11.44;59.08
27840;BME280;15207;42.182;24.308;2024-02-23T08:40:35;99119.13;;;11.53;58.58
27840;BME280;15207;42.182;24.308;2024-02-23T08:43:00;99129.97;;;11.51;58.77
27840;BME280;15207;42.182;24.308;2024-02-23T08:45:26;99121.19;;;11.49;59.45
27840;BME280;15207;42.182;24.308;2024-02-23T08:47:51;99119.72;;;11.57;59.89
27840;BME280;15207;42.182;24.308;2024-02-23T08:50:16;99119.41;;;11.81;58.48
27840;BME280;15207;42.182;24.308;2024-02-23T08:52:42;99108.75;;;11.70;59.07
27840;BME280;15207;42.182;24.308;2024-02-23T08:55:07;99107.41;;;12.07;58.28
27840;BME280;15207;42.182;24.308;2024-02-23T08:57:33;99099.06;;;12.61;55.71
27840;BME280;15207;42.182;24.308;2024-02-23T08:59:59;99094.63;;;12.60;54.54
27840;BME280;15207;42.182;24.308;2024-02-23T09:02:24;99101.75;;;12.80;54.29
27840;BME280;15207;42.182;24.308;2024-02-23T09:04:50;99104.44;;;12.80;53.99
27840;BME280;15207;42.182;24.308;2024-02-23T09:07:15;99102.00;;;12.57;53.72
27840;BME280;15207;42.182;24.308;2024-02-23T09:09:40;99101.88;;;12.59;54.34
27840;BME280;15207;42.182;24.308;2024-02-23T09:12:06;99097.94;;;12.83;53.63
27840;BME280;15207;42.182;24.308;2024-02-23T09:14:35;99089.88;;;13.03;52.09
27840;BME280;15207;42.182;24.308;2024-02-23T09:17:03;99092.81;;;12.60;52.89
27840;BME280;15207;42.182;24.308;2024-02-23T09:19:29;99083.63;;;12.63;52.62
27840;BME280;15207;42.182;24.308;2024-02-23T09:21:54;99084.63;;;12.62;53.32
27840;BME280;15207;42.182;24.308;2024-02-23T09:24:20;99086.34;;;12.73;52.71
27840;BME280;15207;42.182;24.308;2024-02-23T09:26:48;99087.19;;;12.63;52.59
27840;BME280;15207;42.182;24.308;2024-02-23T09:29:14;99090.00;;;12.72;52.54
27840;BME280;15207;42.182;24.308;2024-02-23T09:31:39;99086.44;;;12.51;52.97
27840;BME280;15207;42.182;24.308;2024-02-23T09:34:04;99084.63;;;13.01;51.62
27840;BME280;15207;42.182;24.308;2024-02-23T09:36:30;99084.16;;;13.26;51.68
27840;BME280;15207;42.182;24.308;2024-02-23T09:38:55;99073.94;;;13.87;49.57
27840;BME280;15207;42.182;24.308;2024-02-23T09:41:22;99064.72;;;13.89;49.28
27840;BME280;15207;42.182;24.308;2024-02-23T09:43:48;99064.44;;;14.21;49.36
27840;BME280;15207;42.182;24.308;2024-02-23T09:46:15;99081.22;;;13.77;48.59
27840;BME280;15207;42.182;24.308;2024-02-23T09:48:45;99067.81;;;13.95;48.85
27840;BME280;15207;42.182;24.308;2024-02-23T09:51:12;99070.97;;;13.90;48.71
27840;BME280;15207;42.182;24.308;2024-02-23T09:53:38;99062.34;;;13.86;48.65
27840;BME280;15207;42.182;24.308;2024-02-23T09:56:05;99062.06;;;14.18;48.51
27840;BME280;15207;42.182;24.308;2024-02-23T09:58:32;99055.06;;;14.25;48.62
27840;BME280;15207;42.182;24.308;2024-02-23T10:00:58;99053.25;;;14.62;47.50
27840;BME280;15207;42.182;24.308;2024-02-23T10:03:27;99048.09;;;14.68;47.27
27840;BME280;15207;42.182;24.308;2024-02-23T10:05:54;99045.56;;;14.85;46.55
27840;BME280;15207;42.182;24.308;2024-02-23T10:08:19;99052.81;;;14.85;47.00
27840;BME280;15207;42.182;24.308;2024-02-23T10:10:46;99049.09;;;14.67;46.83
27840;BME280;15207;42.182;24.308;2024-02-23T10:13:12;99036.84;;;14.55;47.28
27840;BME280;15207;42.182;24.308;2024-02-23T10:15:37;99052.03;;;14.10;48.37
27840;BME280;15207;42.182;24.308;2024-02-23T10:18:04;99045.59;;;14.21;48.50
27840;BME280;15207;42.182;24.308;2024-02-23T10:20:30;99039.22;;;14.40;48.48
27840;BME280;15207;42.182;24.308;2024-02-23T10:22:56;99046.34;;;13.85;49.11
27840;BME280;15207;42.182;24.308;2024-02-23T10:25:21;99049.72;;;14.15;48.59
27840;BME280;15207;42.182;24.308;2024-02-23T10:27:47;99033.41;;;13.98;48.49
27840;BME280;15207;42.182;24.308;2024-02-23T10:30:13;99022.34;;;14.38;48.33
27840;BME280;15207;42.182;24.308;2024-02-23T10:32:41;99026.91;;;14.74;47.71
27840;BME280;15207;42.182;24.308;2024-02-23T10:35:11;99035.13;;;14.36;48.02
27840;BME280;15207;42.182;24.308;2024-02-23T10:37:38;99027.09;;;14.08;48.85
27840;BME280;15207;42.182;24.308;2024-02-23T10:40:03;99016.38;;;14.44;48.35
27840;BME280;15207;42.182;24.308;2024-02-23T10:42:33;99015.13;;;14.38;48.62
27840;BME280;15207;42.182;24.308;2024-02-23T10:45:01;99013.69;;;14.44;48.86
27840;BME280;15207;42.182;24.308;2024-02-23T10:47:28;99005.28;;;14.29;48.39
27840;BME280;15207;42.182;24.308;2024-02-23T10:49:56;99007.91;;;14.57;47.98
27840;BME280;15207;42.182;24.308;2024-02-23T10:52:23;99014.44;;;14.36;48.39
27840;BME280;15207;42.182;24.308;2024-02-23T10:54:50;99008.94;;;14.10;48.57
27840;BME280;15207;42.182;24.308;2024-02-23T10:57:17;99009.97;;;14.27;48.66
27840;BME280;15207;42.182;24.308;2024-02-23T10:59:46;98998.13;;;14.38;48.24
27840;BME280;15207;42.182;24.308;2024-02-23T11:02:13;98999.09;;;14.00;48.93
27840;BME280;15207;42.182;24.308;2024-02-23T11:04:46;98995.38;;;14.01;49.33
27840;BME280;15207;42.182;24.308;2024-02-23T11:07:16;98992.91;;;14.36;48.80
27840;BME280;15207;42.182;24.308;2024-02-23T11:09:49;98991.13;;;14.45;48.29
27840;BME280;15207;42.182;24.308;2024-02-23T11:12:21;98983.56;;;14.49;48.09
27840;BME280;15207;42.182;24.308;2024-02-23T11:14:48;98980.19;;;14.65;47.80
27840;BME280;15207;42.182;24.308;2024-02-23T11:17:20;98979.25;;;14.74;47.47
27840;BME280;15207;42.182;24.308;2024-02-23T11:19:48;98971.97;;;14.93;46.97
27840;BME280;15207;42.182;24.308;2024-02-23T11:22:14;98968.41;;;15.11;46.73
27840;BME280;15207;42.182;24.308;2024-02-23T11:24:44;98970.94;;;15.12;46.69
27840;BME280;15207;42.182;24.308;2024-02-23T11:27:19;98966.44;;;15.21;46.74
27840;BME280;15207;42.182;24.308;2024-02-23T11:29:48;98978.03;;;15.13;46.93
27840;BME280;15207;42.182;24.308;2024-02-23T11:32:36;98958.50;;;15.19;45.46
27840;BME280;15207;42.182;24.308;2024-02-23T11:35:02;98958.63;;;15.10;45.05
27840;BME280;15207;42.182;24.308;2024-02-23T11:37:28;98955.19;;;14.99;45.42
27840;BME280;15207;42.182;24.308;2024-02-23T11:39:55;98953.53;;;15.06;45.17
27840;BME280;15207;42.182;24.308;2024-02-23T11:42:20;98940.75;;;14.82;45.22
27840;BME280;15207;42.182;24.308;2024-02-23T11:44:49;98932.19;;;14.68;46.19
27840;BME280;15207;42.182;24.308;2024-02-23T11:47:14;98933.22;;;14.67;47.14
27840;BME280;15207;42.182;24.308;2024-02-23T11:49:42;98934.72;;;14.88;46.27
27840;BME280;15207;42.182;24.308;2024-02-23T11:52:07;98932.91;;;14.97;45.96
27840;BME280;15207;42.182;24.308;2024-02-23T11:54:32;98934.38;;;15.10;46.00
27840;BME280;15207;42.182;24.308;2024-02-23T11:56:58;98933.47;;;15.36;45.78
27840;BME280;15207;42.182;24.308;2024-02-23T11:59:25;98935.91;;;15.55;45.42
27840;BME280;15207;42.182;24.308;2024-02-23T12:01:50;98929.19;;;15.68;45.07
27840;BME280;15207;42.182;24.308;2024-02-23T12:04:15;98925.28;;;15.54;44.54
27840;BME280;15207;42.182;24.308;2024-02-23T12:06:44;98927.78;;;15.47;44.87
27840;BME280;15207;42.182;24.308;2024-02-23T12:09:11;98919.13;;;15.27;45.16
27840;BME280;15207;42.182;24.308;2024-02-23T12:11:38;98912.47;;;15.56;44.50
27840;BME280;15207;42.182;24.308;2024-02-23T12:14:05;98910.91;;;15.45;44.25
27840;BME280;15207;42.182;24.308;2024-02-23T12:16:34;98920.38;;;15.14;44.84
27840;BME280;15207;42.182;24.308;2024-02-23T12:19:01;98905.03;;;15.50;44.33
27840;BME280;15207;42.182;24.308;2024-02-23T12:21:28;98894.91;;;15.43;44.59
27840;BME280;15207;42.182;24.308;2024-02-23T12:23:53;98892.84;;;15.37;44.50
27840;BME280;15207;42.182;24.308;2024-02-23T12:26:19;98897.78;;;15.50;44.84
27840;BME280;15207;42.182;24.308;2024-02-23T12:28:44;98885.88;;;15.78;44.42
27840;BME280;15207;42.182;24.308;2024-02-23T12:31:10;98886.91;;;15.77;44.67
27840;BME280;15207;42.182;24.308;2024-02-23T12:33:40;98886.91;;;15.85;44.34
27840;BME280;15207;42.182;24.308;2024-02-23T12:36:07;98888.94;;;15.83;44.50
27840;BME280;15207;42.182;24.308;2024-02-23T12:38:33;98893.81;;;15.79;43.69
27840;BME280;15207;42.182;24.308;2024-02-23T12:40:59;98891.28;;;15.86;44.13
27840;BME280;15207;42.182;24.308;2024-02-23T12:43:24;98895.50;;;15.80;44.72
27840;BME280;15207;42.182;24.308;2024-02-23T12:45:53;98885.47;;;15.47;45.33
27840;BME280;15207;42.182;24.308;2024-02-23T12:48:19;98880.63;;;15.59;45.03